Time;durP1;ratioP1;P1;durP2;ratioP2;P2;SDS_P1;SDS_P2;PMS_P1;PMS_P2;Temp;Humidity;BMP_temperature;BMP_pressure;BME280_temperature;BME280_humidity;BME280_pressure;Samples;Min_cycle;Max_cycle;Signal;HPM_P1;HPM_P2
2022/11/12 00:02:12;;;;;;;24.25;14.75;;;;;;;;;;4986491;28;20556;-60
2022/11/12 00:04:56;;;;;;;24.80;13.77;;;;;;;;;;4983324;28;20851;-60
2022/11/12 00:07:41;;;;;;;27.27;13.23;;;;;;;;;;4980250;28;20037;-60
2022/11/12 00:10:26;;;;;;;23.55;13.52;;;;;;;;;;4972651;28;20042;-60
2022/11/12 00:13:10;;;;;;;28.02;13.73;;;;;;;;;;4972987;28;20427;-60
2022/11/12 00:15:55;;;;;;;27.27;14.68;;;;;;;;;;4975376;28;20069;-61
2022/11/12 00:18:39;;;;;;;26.70;15.82;;;;;;;;;;4976499;28;20148;-61
2022/11/12 00:21:24;;;;;;;27.33;15.73;;;;;;;;;;4984296;28;20053;-60
2022/11/12 00:24:08;;;;;;;24.77;13.77;;;;;;;;;;4981364;28;20049;-60
2022/11/12 00:26:53;;;;;;;25.40;14.98;;;;;;;;;;4985831;28;20046;-60
2022/11/12 00:29:37;;;;;;;26.13;13.50;;;;;;;;;;4979210;28;20085;-60
2022/11/12 00:32:22;;;;;;;27.67;14.45;;;;;;;;;;4987668;28;20517;-60
2022/11/12 00:35:07;;;;;;;22.40;13.48;;;;;;;;;;4974757;28;20034;-60
2022/11/12 00:37:55;;;;;;;22.00;13.02;;;;;;;;;;4978155;28;20336;-60
2022/11/12 00:40:41;;;;;;;24.42;13.50;;;;;;;;;;4985528;28;20045;-60
2022/11/12 00:43:26;;;;;;;22.63;12.80;;;;;;;;;;4969679;28;20131;-60
2022/11/12 00:46:11;;;;;;;22.60;13.40;;;;;;;;;;4979489;28;20403;-60
2022/11/12 00:48:56;;;;;;;26.92;13.88;;;;;;;;;;4982440;28;20058;-60
2022/11/12 00:51:40;;;;;;;24.40;13.75;;;;;;;;;;4982124;28;20041;-60
2022/11/12 00:54:25;;;;;;;21.50;12.95;;;;;;;;;;4986695;28;20061;-60
2022/11/12 00:57:10;;;;;;;24.52;13.57;;;;;;;;;;4976388;28;20037;-60
2022/11/12 00:59:54;;;;;;;19.77;12.88;;;;;;;;;;4985348;28;20115;-60
2022/11/12 01:02:39;;;;;;;22.10;13.32;;;;;;;;;;4990623;28;20041;-61
2022/11/12 01:05:23;;;;;;;23.02;13.57;;;;;;;;;;4978423;28;20073;-60
2022/11/12 01:08:08;;;;;;;25.80;14.77;;;;;;;;;;4986961;28;20544;-60
2022/11/12 01:10:52;;;;;;;20.42;12.45;;;;;;;;;;4987963;28;20037;-60
2022/11/12 01:13:38;;;;;;;19.45;12.60;;;;;;;;;;4980114;28;20049;-60
2022/11/12 01:16:23;;;;;;;24.45;14.35;;;;;;;;;;4978132;28;20068;-60
2022/11/12 01:19:10;;;;;;;22.67;12.85;;;;;;;;;;4973730;28;20049;-60
2022/11/12 01:21:55;;;;;;;26.98;14.25;;;;;;;;;;4973269;28;20070;-60
2022/11/12 01:24:39;;;;;;;27.50;13.80;;;;;;;;;;4978658;28;20114;-60
2022/11/12 01:27:24;;;;;;;23.52;13.63;;;;;;;;;;4985723;28;20045;-60
2022/11/12 01:30:09;;;;;;;30.10;14.23;;;;;;;;;;4978143;28;20033;-60
2022/11/12 01:32:54;;;;;;;23.70;13.70;;;;;;;;;;4982016;28;20041;-60
2022/11/12 01:35:38;;;;;;;21.48;13.05;;;;;;;;;;4987407;28;20088;-60
2022/11/12 01:38:23;;;;;;;24.50;14.00;;;;;;;;;;4976856;28;20049;-60
2022/11/12 01:41:08;;;;;;;27.02;15.23;;;;;;;;;;4980327;28;20436;-60
2022/11/12 01:44:12;;;;;;;23.85;14.65;;;;;;;;;;4977379;28;20129;-60
2022/11/12 01:46:56;;;;;;;;;;;;;;;;;;4982049;28;20054;-60
2022/11/12 01:49:44;;;;;;;21.92;12.70;;;;;;;;;;4986804;28;19963;-60
2022/11/12 01:52:35;;;;;;;27.92;13.52;;;;;;;;;;4977023;28;20076;-60
2022/11/12 01:55:23;;;;;;;26.63;13.77;;;;;;;;;;4984149;28;20442;-60
2022/11/12 01:58:15;;;;;;;27.65;13.23;;;;;;;;;;4985077;28;20047;-60
2022/11/12 02:01:01;;;;;;;26.13;14.05;;;;;;;;;;4980110;28;21534;-60
2022/11/12 02:03:46;;;;;;;19.80;12.77;;;;;;;;;;4987195;28;20050;-60
2022/11/12 02:06:31;;;;;;;21.23;12.68;;;;;;;;;;4976786;28;20045;-60
2022/11/12 02:09:16;;;;;;;29.83;12.35;;;;;;;;;;4979070;28;20041;-60
2022/11/12 02:12:01;;;;;;;34.95;12.57;;;;;;;;;;4987230;28;20076;-60
2022/11/12 02:14:46;;;;;;;35.33;12.88;;;;;;;;;;4976461;28;20045;-60
2022/11/12 02:17:31;;;;;;;36.75;13.07;;;;;;;;;;4984719;28;20043;-60
2022/11/12 02:20:16;;;;;;;42.22;12.65;;;;;;;;;;4979960;28;20075;-60
2022/11/12 02:23:00;;;;;;;41.28;12.75;;;;;;;;;;4981247;28;20558;-60
2022/11/12 02:25:45;;;;;;;32.05;13.00;;;;;;;;;;4986540;28;20044;-60
2022/11/12 02:28:30;;;;;;;28.58;13.18;;;;;;;;;;4975962;28;20399;-60
2022/11/12 02:31:15;;;;;;;38.38;13.75;;;;;;;;;;4979373;28;20037;-60
2022/11/12 02:33:59;;;;;;;27.50;12.48;;;;;;;;;;4986885;28;20053;-60
2022/11/12 02:36:44;;;;;;;25.70;11.80;;;;;;;;;;4977969;28;20620;-60
2022/11/12 02:39:28;;;;;;;22.90;12.07;;;;;;;;;;4983887;28;20395;-60
2022/11/12 02:42:13;;;;;;;31.75;14.07;;;;;;;;;;4973849;28;20412;-60
2022/11/12 02:44:57;;;;;;;19.52;11.88;;;;;;;;;;4982213;28;20062;-60
2022/11/12 02:47:42;;;;;;;25.80;13.15;;;;;;;;;;4984726;28;20104;-60
2022/11/12 02:50:26;;;;;;;24.48;12.18;;;;;;;;;;4974510;28;20056;-60
2022/11/12 02:53:11;;;;;;;21.63;11.80;;;;;;;;;;4980486;28;20491;-60
2022/11/12 02:55:55;;;;;;;26.17;12.52;;;;;;;;;;4975904;28;20408;-60
2022/11/12 02:58:40;;;;;;;19.98;12.73;;;;;;;;;;4976473;28;20049;-60
2022/11/12 03:01:24;;;;;;;17.42;11.75;;;;;;;;;;4988818;28;20090;-60
2022/11/12 03:04:09;;;;;;;20.27;12.23;;;;;;;;;;4986478;28;20045;-60
2022/11/12 03:06:53;;;;;;;22.13;14.23;;;;;;;;;;4986880;28;20031;-60
2022/11/12 03:09:38;;;;;;;26.00;12.88;;;;;;;;;;4977055;28;20092;-60
2022/11/12 03:12:23;;;;;;;21.35;12.98;;;;;;;;;;4986222;28;20455;-60
2022/11/12 03:15:07;;;;;;;23.80;12.52;;;;;;;;;;4979560;28;20041;-60
2022/11/12 03:17:52;;;;;;;24.27;13.52;;;;;;;;;;4987181;28;20129;-60
2022/11/12 03:20:36;;;;;;;24.63;13.95;;;;;;;;;;4977933;28;20168;-60
2022/11/12 03:23:21;;;;;;;19.90;12.68;;;;;;;;;;4978892;28;20531;-60
2022/11/12 03:26:06;;;;;;;23.58;13.05;;;;;;;;;;4981287;28;20051;-60
2022/11/12 03:28:50;;;;;;;21.75;13.50;;;;;;;;;;4983822;28;20083;-60
2022/11/12 03:31:35;;;;;;;24.67;14.23;;;;;;;;;;4982331;28;20099;-60
2022/11/12 03:34:20;;;;;;;22.77;13.77;;;;;;;;;;4973023;28;20081;-60
2022/11/12 03:37:08;;;;;;;24.73;14.30;;;;;;;;;;4981676;28;20412;-60
2022/11/12 03:39:52;;;;;;;22.08;13.18;;;;;;;;;;4982343;28;20049;-60
2022/11/12 03:42:37;;;;;;;27.80;14.05;;;;;;;;;;4974250;28;20152;-60
2022/11/12 03:45:23;;;;;;;24.30;13.93;;;;;;;;;;4979546;28;20041;-60
2022/11/12 03:48:08;;;;;;;29.30;14.95;;;;;;;;;;4985683;28;20049;-61
2022/11/12 03:50:56;;;;;;;25.48;14.95;;;;;;;;;;4976469;28;20091;-60
2022/11/12 03:53:41;;;;;;;25.52;14.30;;;;;;;;;;4977404;28;20045;-60
2022/11/12 03:56:25;;;;;;;27.40;14.20;;;;;;;;;;4985854;28;20084;-60
2022/11/12 03:59:10;;;;;;;27.23;14.88;;;;;;;;;;4972262;28;20081;-60
2022/11/12 04:01:54;;;;;;;21.95;13.00;;;;;;;;;;4975720;28;20049;-60
2022/11/12 04:10:46;;;;;;;22.90;13.90;;;;;;;;;;4973360;28;19918;-61
2022/11/12 04:13:31;;;;;;;23.42;12.95;;;;;;;;;;4975650;28;20050;-60
2022/11/12 04:22:24;;;;;;;23.48;13.65;;;;;;;;;;4972581;28;20038;-60
2022/11/12 04:28:12;;;;;;;22.27;13.00;;;;;;;;;;4988922;28;20580;-60
2022/11/12 04:30:56;;;;;;;21.25;13.05;;;;;;;;;;4978300;28;20091;-60
2022/11/12 04:33:41;;;;;;;20.15;12.77;;;;;;;;;;4980931;28;20041;-61
2022/11/12 04:36:25;;;;;;;21.98;12.63;;;;;;;;;;4988961;28;20522;-60
2022/11/12 04:39:11;;;;;;;22.65;13.45;;;;;;;;;;4979908;28;20038;-60
2022/11/12 04:44:59;;;;;;;23.70;12.57;;;;;;;;;;4978045;28;20395;-60
2022/11/12 04:47:44;;;;;;;31.35;14.82;;;;;;;;;;4980401;28;20038;-60
2022/11/12 04:50:28;;;;;;;22.92;13.23;;;;;;;;;;4988310;28;20083;-60
2022/11/12 04:53:13;;;;;;;22.02;13.15;;;;;;;;;;4980204;28;20049;-60
2022/11/12 04:55:58;;;;;;;21.33;12.27;;;;;;;;;;4979030;28;20038;-60
2022/11/12 04:58:43;;;;;;;23.65;13.60;;;;;;;;;;4991395;28;20037;-60
2022/11/12 05:01:28;;;;;;;24.00;12.50;;;;;;;;;;4984989;28;20073;-60
2022/11/12 05:04:13;;;;;;;20.95;13.45;;;;;;;;;;4985178;28;20084;-60
2022/11/12 05:06:58;;;;;;;24.48;13.70;;;;;;;;;;4977540;28;20095;-60
2022/11/12 05:09:43;;;;;;;22.85;13.18;;;;;;;;;;4988839;28;20142;-60
2022/11/12 05:12:27;;;;;;;21.23;13.20;;;;;;;;;;4975229;28;20133;-60
2022/11/12 05:15:12;;;;;;;24.27;14.07;;;;;;;;;;4985035;28;20559;-60
2022/11/12 05:17:56;;;;;;;21.35;13.18;;;;;;;;;;4983862;28;20126;-60
2022/11/12 05:20:41;;;;;;;22.05;13.57;;;;;;;;;;4978389;28;20099;-60
2022/11/12 05:23:25;;;;;;;24.48;12.63;;;;;;;;;;4982314;28;20049;-60
2022/11/12 05:26:10;;;;;;;22.70;12.23;;;;;;;;;;4980130;28;20561;-60
2022/11/12 05:28:55;;;;;;;19.60;12.40;;;;;;;;;;4983070;28;20053;-60
2022/11/12 05:31:39;;;;;;;21.50;12.27;;;;;;;;;;4982519;28;20515;-60
2022/11/12 05:34:24;;;;;;;23.88;13.48;;;;;;;;;;4983340;28;20082;-60
2022/11/12 05:37:09;;;;;;;20.52;12.48;;;;;;;;;;4979743;28;20088;-60
2022/11/12 05:39:54;;;;;;;21.58;11.43;;;;;;;;;;4982628;28;20045;-60
2022/11/12 05:42:38;;;;;;;20.88;11.48;;;;;;;;;;4981031;28;20041;-60
2022/11/12 05:45:23;;;;;;;19.30;11.38;;;;;;;;;;4979755;28;20535;-60
2022/11/12 05:48:07;;;;;;;18.00;11.30;;;;;;;;;;4981854;28;20061;-60
2022/11/12 05:50:52;;;;;;;18.73;11.45;;;;;;;;;;4982064;28;20107;-60
2022/11/12 05:53:37;;;;;;;17.40;11.05;;;;;;;;;;4980006;28;20758;-60
2022/11/12 05:56:21;;;;;;;15.60;10.30;;;;;;;;;;4979886;28;20033;-60
2022/11/12 05:59:07;;;;;;;20.95;11.48;;;;;;;;;;4979288;28;20088;-60
2022/11/12 06:01:52;;;;;;;16.02;10.35;;;;;;;;;;4985365;28;20052;-60
2022/11/12 06:04:36;;;;;;;17.83;10.50;;;;;;;;;;4987192;28;20560;-61
2022/11/12 06:07:21;;;;;;;20.83;10.10;;;;;;;;;;4978246;28;20102;-61
2022/11/12 06:10:05;;;;;;;15.52;10.25;;;;;;;;;;4980280;28;20087;-61
2022/11/12 06:12:51;;;;;;;20.90;11.15;;;;;;;;;;4986980;28;20441;-61
2022/11/12 06:15:35;;;;;;;18.05;10.85;;;;;;;;;;4979399;28;20119;-61
2022/11/12 06:18:20;;;;;;;18.27;11.02;;;;;;;;;;4977560;28;20049;-61
2022/11/12 06:21:21;;;;;;;18.63;11.05;;;;;;;;;;4975327;28;20115;-61
2022/11/12 06:24:06;;;;;;;20.25;11.88;;;;;;;;;;4978573;28;20049;-61
2022/11/12 06:26:51;;;;;;;17.73;11.20;;;;;;;;;;4985535;28;20045;-61
2022/11/12 06:29:37;;;;;;;18.92;10.98;;;;;;;;;;4979407;28;20041;-61
2022/11/12 06:32:22;;;;;;;16.60;11.02;;;;;;;;;;4989880;28;20530;-61
2022/11/12 06:35:06;;;;;;;20.55;11.60;;;;;;;;;;4974974;28;20084;-61
2022/11/12 06:37:51;;;;;;;22.33;11.38;;;;;;;;;;4979740;28;20584;-61
2022/11/12 06:40:36;;;;;;;18.52;11.82;;;;;;;;;;4986077;28;20042;-61
2022/11/12 06:43:20;;;;;;;17.77;11.32;;;;;;;;;;4982276;28;20060;-61
2022/11/12 06:46:06;;;;;;;20.02;12.30;;;;;;;;;;4976299;28;20400;-61
2022/11/12 06:48:51;;;;;;;18.50;10.93;;;;;;;;;;4981673;28;20519;-61
2022/11/12 06:51:35;;;;;;;19.35;11.52;;;;;;;;;;4978120;28;20096;-61
2022/11/12 06:54:20;;;;;;;16.95;10.90;;;;;;;;;;4979782;28;20045;-60
2022/11/12 06:57:04;;;;;;;19.10;11.23;;;;;;;;;;4977920;28;20041;-61
2022/11/12 06:59:49;;;;;;;17.85;10.82;;;;;;;;;;4981080;28;20068;-61
2022/11/12 07:02:35;;;;;;;23.23;12.52;;;;;;;;;;4978951;28;20037;-61
2022/11/12 07:05:19;;;;;;;19.33;12.43;;;;;;;;;;4976165;28;20420;-61
2022/11/12 07:08:05;;;;;;;21.70;12.32;;;;;;;;;;4981529;28;20061;-61
2022/11/12 07:10:49;;;;;;;19.52;11.55;;;;;;;;;;4984112;28;20450;-61
2022/11/12 07:13:35;;;;;;;20.65;11.27;;;;;;;;;;4976700;28;20046;-61
2022/11/12 07:16:21;;;;;;;22.70;12.02;;;;;;;;;;4977438;28;20168;-61
2022/11/12 07:19:06;;;;;;;22.45;12.77;;;;;;;;;;4981908;28;20057;-61
2022/11/12 07:21:50;;;;;;;20.35;11.30;;;;;;;;;;4977916;28;20038;-61
2022/11/12 07:24:35;;;;;;;18.85;11.65;;;;;;;;;;4979465;28;20113;-61
2022/11/12 07:27:19;;;;;;;24.67;12.93;;;;;;;;;;4976672;28;20088;-61
2022/11/12 07:30:05;;;;;;;21.05;12.27;;;;;;;;;;4981706;28;20033;-61
2022/11/12 07:32:49;;;;;;;19.42;11.90;;;;;;;;;;4980616;28;20049;-61
2022/11/12 07:35:34;;;;;;;22.73;12.30;;;;;;;;;;4978442;28;20069;-61
2022/11/12 07:38:19;;;;;;;23.88;13.98;;;;;;;;;;4981350;28;20061;-61
2022/11/12 07:41:04;;;;;;;21.08;12.30;;;;;;;;;;4981502;28;20033;-61
2022/11/12 07:43:49;;;;;;;20.25;11.55;;;;;;;;;;4980111;28;20423;-61
2022/11/12 07:46:34;;;;;;;20.08;11.48;;;;;;;;;;4975843;28;20037;-61
2022/11/12 07:49:19;;;;;;;25.55;12.75;;;;;;;;;;4979956;28;20045;-61
2022/11/12 07:52:03;;;;;;;22.85;12.27;;;;;;;;;;4979684;28;20046;-61
2022/11/12 07:54:48;;;;;;;19.30;11.15;;;;;;;;;;4980321;28;20064;-61
2022/11/12 07:57:33;;;;;;;18.13;11.35;;;;;;;;;;4979777;28;20046;-61
2022/11/12 08:00:18;;;;;;;23.90;11.60;;;;;;;;;;4981669;28;20534;-60
2022/11/12 08:03:02;;;;;;;23.42;11.77;;;;;;;;;;4987819;28;20152;-61
2022/11/12 08:05:47;;;;;;;19.55;10.77;;;;;;;;;;4981990;28;20171;-61
2022/11/12 08:08:32;;;;;;;20.73;11.40;;;;;;;;;;4985008;28;20077;-61
2022/11/12 08:11:16;;;;;;;22.70;11.05;;;;;;;;;;4986767;28;20555;-61
2022/11/12 08:14:01;;;;;;;18.58;11.68;;;;;;;;;;4977163;28;20239;-61
2022/11/12 08:16:46;;;;;;;20.42;11.18;;;;;;;;;;4971441;28;20126;-61
2022/11/12 08:19:30;;;;;;;22.80;13.02;;;;;;;;;;4972928;28;20080;-61
2022/11/12 08:22:15;;;;;;;21.65;11.23;;;;;;;;;;4975115;28;20080;-61
2022/11/12 08:25:00;;;;;;;17.52;10.73;;;;;;;;;;4975545;28;20453;-61
2022/11/12 08:27:45;;;;;;;17.90;11.00;;;;;;;;;;4975801;28;20075;-61
2022/11/12 08:30:29;;;;;;;22.70;11.48;;;;;;;;;;4978004;28;20072;-61
2022/11/12 08:33:14;;;;;;;21.98;12.13;;;;;;;;;;4976506;28;20048;-61
2022/11/12 08:36:01;;;;;;;22.95;12.48;;;;;;;;;;4986082;28;20450;-61
2022/11/12 08:38:46;;;;;;;27.55;12.95;;;;;;;;;;4987421;28;20041;-60
2022/11/12 08:41:31;;;;;;;19.52;11.77;;;;;;;;;;4987552;28;20089;-61
2022/11/12 08:44:16;;;;;;;28.25;11.95;;;;;;;;;;4989413;28;20041;-61
2022/11/12 08:47:01;;;;;;;19.95;11.85;;;;;;;;;;4982839;28;20041;-61
2022/11/12 08:49:46;;;;;;;20.48;11.40;;;;;;;;;;5009576;28;20041;-61
2022/11/12 08:52:30;;;;;;;19.55;12.48;;;;;;;;;;4976154;28;20049;-61
2022/11/12 08:55:15;;;;;;;19.45;11.45;;;;;;;;;;4985444;28;20073;-61
2022/11/12 08:58:03;;;;;;;19.42;11.55;;;;;;;;;;4982208;28;20499;-61
2022/11/12 09:00:49;;;;;;;19.90;12.00;;;;;;;;;;4982916;28;20145;-61
2022/11/12 09:03:34;;;;;;;21.52;11.93;;;;;;;;;;4981409;28;20061;-61
2022/11/12 09:06:18;;;;;;;20.20;11.07;;;;;;;;;;4977041;28;20531;-61
2022/11/12 09:09:03;;;;;;;20.30;11.25;;;;;;;;;;4977961;28;20061;-61
2022/11/12 09:11:48;;;;;;;19.50;11.80;;;;;;;;;;4979107;28;20060;-61
2022/11/12 09:14:32;;;;;;;22.00;11.18;;;;;;;;;;4979326;28;20092;-62
2022/11/12 09:17:17;;;;;;;24.40;12.60;;;;;;;;;;4985404;28;20584;-66
2022/11/12 09:20:01;;;;;;;22.17;12.10;;;;;;;;;;4980635;28;20050;-61
2022/11/12 09:22:46;;;;;;;18.35;10.70;;;;;;;;;;4975706;28;20042;-61
2022/11/12 09:25:30;;;;;;;21.83;11.32;;;;;;;;;;4987628;28;20122;-61
2022/11/12 09:28:16;;;;;;;17.00;10.13;;;;;;;;;;4984290;28;20151;-61
2022/11/12 09:31:01;;;;;;;18.98;10.38;;;;;;;;;;4979697;28;20137;-61
2022/11/12 09:33:46;;;;;;;21.55;11.20;;;;;;;;;;4982447;28;20050;-61
2022/11/12 09:36:30;;;;;;;15.88;8.88;;;;;;;;;;4974103;28;20139;-61
2022/11/12 09:39:15;;;;;;;14.75;7.28;;;;;;;;;;4979188;28;20900;-61
2022/11/12 09:41:59;;;;;;;19.67;6.72;;;;;;;;;;4979548;28;20038;-61
2022/11/12 09:44:46;;;;;;;11.63;6.30;;;;;;;;;;4975769;28;20064;-61
2022/11/12 09:47:37;;;;;;;15.23;6.45;;;;;;;;;;4981843;28;20111;-62
2022/11/12 09:50:33;;;;;;;13.98;5.43;;;;;;;;;;4975456;28;20089;-61
2022/11/12 09:53:20;;;;;;;17.15;7.07;;;;;;;;;;4984265;28;20050;-61
2022/11/12 09:56:06;;;;;;;13.65;5.55;;;;;;;;;;4980119;28;20061;-61
2022/11/12 09:58:51;;;;;;;18.52;6.20;;;;;;;;;;4979923;28;20053;-61
2022/11/12 10:01:39;;;;;;;15.23;5.53;;;;;;;;;;4982570;28;20037;-62
2022/11/12 10:04:36;;;;;;;11.57;5.25;;;;;;;;;;4936216;28;1388958;-61
2022/11/12 10:07:39;;;;;;;14.50;5.65;;;;;;;;;;4974044;28;20050;-61
2022/11/12 10:10:24;;;;;;;;;;;;;;;;;;4973152;28;20050;-61
2022/11/12 10:13:19;;;;;;;10.05;4.68;;;;;;;;;;4972361;28;20281;-61
2022/11/12 10:19:19;;;;;;;8.73;4.32;;;;;;;;;;4976833;28;20079;-61
2022/11/12 10:22:23;;;;;;;10.63;4.22;;;;;;;;;;4980836;28;20153;-61
2022/11/12 10:25:26;;;;;;;10.25;4.05;;;;;;;;;;4980496;28;20066;-61
2022/11/12 10:28:25;;;;;;;10.77;3.78;;;;;;;;;;4978361;28;20045;-61
2022/11/12 10:31:15;;;;;;;8.73;4.38;;;;;;;;;;4978314;28;20543;-62
2022/11/12 10:34:09;;;;;;;10.23;4.07;;;;;;;;;;4980673;28;20117;-62
2022/11/12 10:37:25;;;;;;;12.10;4.10;;;;;;;;;;4975658;28;20108;-61
2022/11/12 10:40:31;;;;;;;20.65;4.10;;;;;;;;;;4996988;28;20455;-61
2022/11/12 10:43:16;;;;;;;9.68;4.97;;;;;;;;;;4975615;28;20120;-61
2022/11/12 10:46:13;;;;;;;6.65;3.70;;;;;;;;;;4977439;28;20510;-62
2022/11/12 10:48:59;;;;;;;12.23;3.72;;;;;;;;;;4978442;28;20525;-61
2022/11/12 10:51:53;;;;;;;9.68;3.90;;;;;;;;;;4972848;28;20499;-61
2022/11/12 10:54:38;;;;;;;12.18;4.32;;;;;;;;;;4983654;28;20172;-61
2022/11/12 10:57:24;;;;;;;16.55;5.63;;;;;;;;;;4983567;28;20053;-61
2022/11/12 11:00:12;;;;;;;8.38;4.10;;;;;;;;;;4983031;28;20097;-62
2022/11/12 11:02:57;;;;;;;9.85;4.10;;;;;;;;;;4982895;28;20100;-62
2022/11/12 11:06:00;;;;;;;8.88;3.92;;;;;;;;;;4981681;28;20042;-62
2022/11/12 11:08:47;;;;;;;9.40;3.70;;;;;;;;;;4979497;28;20088;-62
2022/11/12 11:11:32;;;;;;;13.07;3.85;;;;;;;;;;4980731;28;20045;-61
2022/11/12 11:14:25;;;;;;;11.13;4.70;;;;;;;;;;4977314;28;20510;-61
2022/11/12 11:17:15;;;;;;;8.82;4.05;;;;;;;;;;4977900;28;20084;-62
2022/11/12 11:20:00;;;;;;;5.30;3.78;;;;;;;;;;4976711;28;20177;-61
2022/11/12 11:22:52;;;;;;;6.70;4.05;;;;;;;;;;4972197;28;20045;-62
2022/11/12 11:25:38;;;;;;;9.98;4.10;;;;;;;;;;4982278;28;20037;-62
2022/11/12 11:28:50;;;;;;;8.52;3.70;;;;;;;;;;4985009;28;20513;-62
2022/11/12 11:31:54;;;;;;;7.15;3.88;;;;;;;;;;4981531;28;20091;-62
2022/11/12 11:34:51;;;;;;;9.40;3.72;;;;;;;;;;4983264;28;20029;-61
2022/11/12 11:37:41;;;;;;;6.05;3.42;;;;;;;;;;4980082;28;20462;-62
2022/11/12 11:40:29;;;;;;;8.95;3.70;;;;;;;;;;4982311;28;20041;-62
2022/11/12 11:43:32;;;;;;;9.27;4.03;;;;;;;;;;4979369;28;20041;-62
2022/11/12 11:46:17;;;;;;;11.15;5.10;;;;;;;;;;4979932;28;20045;-61
2022/11/12 11:49:06;;;;;;;10.20;3.95;;;;;;;;;;4979603;28;20037;-61
2022/11/12 11:51:51;;;;;;;8.95;3.33;;;;;;;;;;4980490;28;20150;-61
2022/11/12 11:54:58;;;;;;;6.07;3.40;;;;;;;;;;4982362;28;20083;-61
2022/11/12 11:58:01;;;;;;;9.00;3.60;;;;;;;;;;4979661;28;20038;-62
2022/11/12 12:00:46;;;;;;;7.97;3.97;;;;;;;;;;4983304;28;20091;-62
2022/11/12 12:03:33;;;;;;;9.40;3.80;;;;;;;;;;4980878;28;20062;-62
2022/11/12 12:06:25;;;;;;;8.13;4.05;;;;;;;;;;4979425;28;20070;-62
2022/11/12 12:09:10;;;;;;;7.85;4.07;;;;;;;;;;4979898;28;20403;-61
2022/11/12 12:11:55;;;;;;;9.95;4.45;;;;;;;;;;4977750;28;20404;-62
2022/11/12 12:14:52;;;;;;;8.18;3.80;;;;;;;;;;4979563;28;20453;-61
2022/11/12 12:17:37;;;;;;;7.53;3.65;;;;;;;;;;4982955;28;20085;-62
2022/11/12 12:20:29;;;;;;;10.18;4.20;;;;;;;;;;4979768;28;20032;-62
2022/11/12 12:23:19;;;;;;;10.37;3.93;;;;;;;;;;4973562;28;20683;-62
2022/11/12 12:26:09;;;;;;;12.55;4.22;;;;;;;;;;4972356;28;20054;-62
2022/11/12 12:28:58;;;;;;;13.07;4.00;;;;;;;;;;4976304;28;20548;-62
2022/11/12 12:32:05;;;;;;;5.57;3.53;;;;;;;;;;4985542;28;20034;-61
2022/11/12 12:35:09;;;;;;;11.52;4.40;;;;;;;;;;4979043;28;20037;-62
2022/11/12 12:37:53;;;;;;;;;;;;;;;;;;4981580;28;20097;-62
2022/11/12 12:40:46;;;;;;;6.55;3.53;;;;;;;;;;5026194;28;20055;-62
2022/11/12 12:43:31;;;;;;;6.78;3.00;;;;;;;;;;4977445;28;20034;-62
2022/11/12 12:46:16;;;;;;;14.32;3.70;;;;;;;;;;4987003;28;20068;-61
2022/11/12 12:49:03;;;;;;;6.60;3.80;;;;;;;;;;4991372;28;20510;-62
2022/11/12 12:51:48;;;;;;;10.40;3.25;;;;;;;;;;4982766;28;20037;-61
2022/11/12 12:54:52;;;;;;;12.57;3.63;;;;;;;;;;4988341;28;20030;-62
2022/11/12 12:57:39;;;;;;;11.45;3.67;;;;;;;;;;4990721;28;20396;-62
2022/11/12 13:00:30;;;;;;;9.77;3.28;;;;;;;;;;4991901;28;20087;-62
2022/11/12 13:03:35;;;;;;;10.68;3.92;;;;;;;;;;4981351;28;20085;-62
2022/11/12 13:06:26;;;;;;;5.32;2.92;;;;;;;;;;4976494;28;20110;-62
2022/11/12 13:09:13;;;;;;;9.40;3.05;;;;;;;;;;4990170;28;20114;-62
2022/11/12 13:15:08;;;;;;;10.85;3.10;;;;;;;;;;4981121;28;20503;-62
2022/11/12 13:17:52;;;;;;;6.55;2.97;;;;;;;;;;4980618;28;20044;-62
2022/11/12 13:20:38;;;;;;;9.48;3.50;;;;;;;;;;4987198;28;20153;-62
2022/11/12 13:24:04;;;;;;;10.05;3.10;;;;;;;;;;4985347;28;20054;-61
2022/11/12 13:26:48;;;;;;;17.00;3.53;;;;;;;;;;4985696;28;20075;-62
2022/11/12 13:29:36;;;;;;;11.02;3.75;;;;;;;;;;4980388;28;20292;-62
2022/11/12 13:32:28;;;;;;;7.63;2.97;;;;;;;;;;4986717;28;20530;-62
2022/11/12 13:35:21;;;;;;;14.30;3.10;;;;;;;;;;4983944;28;20464;-62
2022/11/12 13:38:14;;;;;;;11.02;3.53;;;;;;;;;;4978606;28;20072;-61
2022/11/12 13:41:02;;;;;;;8.65;3.58;;;;;;;;;;4987333;28;20763;-62
2022/11/12 13:43:47;;;;;;;13.38;3.03;;;;;;;;;;4987018;28;20041;-62
2022/11/12 13:46:38;;;;;;;12.85;2.83;;;;;;;;;;4985773;28;20099;-62
2022/11/12 13:49:23;;;;;;;14.43;2.90;;;;;;;;;;4984399;28;20127;-61
2022/11/12 13:52:07;;;;;;;12.48;2.90;;;;;;;;;;4986608;28;20053;-62
2022/11/12 13:55:02;;;;;;;18.27;3.20;;;;;;;;;;4988947;28;20037;-62
2022/11/12 13:57:51;;;;;;;11.60;3.80;;;;;;;;;;4987908;28;20484;-62
2022/11/12 14:00:35;;;;;;;7.60;3.10;;;;;;;;;;4983597;28;20072;-62
2022/11/12 14:03:20;;;;;;;15.45;3.20;;;;;;;;;;4979421;28;20103;-61
2022/11/12 14:06:15;;;;;;;10.98;3.10;;;;;;;;;;4986092;28;20126;-62
2022/11/12 14:09:12;;;;;;;10.98;3.17;;;;;;;;;;4982378;28;20066;-62
2022/11/12 14:12:15;;;;;;;15.85;3.20;;;;;;;;;;4981723;28;20123;-61
2022/11/12 14:15:10;;;;;;;9.15;3.03;;;;;;;;;;4980984;28;20045;-62
2022/11/12 14:17:58;;;;;;;13.77;3.97;;;;;;;;;;4980017;28;20091;-62
2022/11/12 14:20:43;;;;;;;11.40;3.20;;;;;;;;;;4987640;28;20042;-62
2022/11/12 14:23:27;;;;;;;9.23;3.13;;;;;;;;;;4978405;28;20073;-61
2022/11/12 14:26:12;;;;;;;9.95;3.22;;;;;;;;;;4974662;28;20067;-61
2022/11/12 14:28:58;;;;;;;8.15;2.78;;;;;;;;;;4985959;28;20403;-62
2022/11/12 14:31:43;;;;;;;12.63;2.53;;;;;;;;;;4984629;28;20084;-62
2022/11/12 14:34:29;;;;;;;10.73;3.00;;;;;;;;;;4970872;28;20104;-61
2022/11/12 14:37:24;;;;;;;13.20;3.65;;;;;;;;;;4982402;28;20049;-62
2022/11/12 14:40:15;;;;;;;9.15;2.80;;;;;;;;;;4972969;28;20150;-62
2022/11/12 14:42:59;;;;;;;9.93;2.88;;;;;;;;;;4985180;28;20040;-62
2022/11/12 14:45:51;;;;;;;10.07;2.63;;;;;;;;;;4983823;28;20400;-63
2022/11/12 14:48:56;;;;;;;9.13;2.33;;;;;;;;;;4988528;28;20075;-62
2022/11/12 14:51:43;;;;;;;7.07;3.42;;;;;;;;;;4988439;28;20037;-62
2022/11/12 14:54:32;;;;;;;10.20;3.13;;;;;;;;;;4988190;28;20431;-62
2022/11/12 14:57:19;;;;;;;11.18;3.25;;;;;;;;;;4986806;28;20037;-62
2022/11/12 15:00:21;;;;;;;7.90;2.97;;;;;;;;;;4980125;28;20034;-62
2022/11/12 15:03:06;;;;;;;11.80;2.97;;;;;;;;;;4980573;28;20419;-62
2022/11/12 15:06:17;;;;;;;11.85;2.80;;;;;;;;;;4980743;28;20111;-62
2022/11/12 15:09:02;;;;;;;14.32;3.20;;;;;;;;;;4985720;28;20042;-61
2022/11/12 15:11:48;;;;;;;11.07;2.65;;;;;;;;;;4983732;28;20044;-61
2022/11/12 15:14:33;;;;;;;8.90;2.45;;;;;;;;;;4981830;28;20041;-62
2022/11/12 15:17:32;;;;;;;8.43;3.65;;;;;;;;;;4979482;28;20081;-62
2022/11/12 15:20:18;;;;;;;9.05;3.10;;;;;;;;;;4987400;28;20156;-62
2022/11/12 15:23:03;;;;;;;10.13;3.03;;;;;;;;;;4983488;28;20523;-61
2022/11/12 15:25:57;;;;;;;14.65;4.50;;;;;;;;;;4988950;28;20075;-62
2022/11/12 15:28:57;;;;;;;11.30;3.72;;;;;;;;;;4984994;28;20549;-61
2022/11/12 15:31:52;;;;;;;11.43;3.00;;;;;;;;;;4983965;28;20037;-62
2022/11/12 15:34:40;;;;;;;12.77;2.72;;;;;;;;;;4981452;28;20037;-61
2022/11/12 15:37:27;;;;;;;9.80;3.47;;;;;;;;;;4978358;28;20506;-62
2022/11/12 15:40:17;;;;;;;17.60;3.30;;;;;;;;;;4983205;28;20087;-62
2022/11/12 15:43:02;;;;;;;19.77;3.83;;;;;;;;;;4981807;28;20087;-62
2022/11/12 15:45:48;;;;;;;7.45;3.22;;;;;;;;;;4977565;28;20096;-61
2022/11/12 15:48:32;;;;;;;11.18;4.05;;;;;;;;;;4984399;28;20065;-62
2022/11/12 15:51:17;;;;;;;11.32;3.40;;;;;;;;;;4977622;28;21038;-62
2022/11/12 15:54:01;;;;;;;14.80;2.92;;;;;;;;;;4977718;28;20416;-62
2022/11/12 15:56:46;;;;;;;10.27;3.17;;;;;;;;;;4982553;28;20037;-62
2022/11/12 15:59:31;;;;;;;10.80;3.22;;;;;;;;;;4985730;28;20570;-62
2022/11/12 16:02:16;;;;;;;11.80;4.10;;;;;;;;;;4986587;28;20042;-61
2022/11/12 16:05:01;;;;;;;14.35;3.35;;;;;;;;;;4972842;28;20085;-62
2022/11/12 16:07:45;;;;;;;11.65;3.42;;;;;;;;;;4986612;28;20507;-62
2022/11/12 16:10:30;;;;;;;17.45;3.97;;;;;;;;;;4984868;28;20072;-62
2022/11/12 16:13:17;;;;;;;12.65;4.05;;;;;;;;;;4984306;28;20041;-61
2022/11/12 16:16:04;;;;;;;17.23;4.55;;;;;;;;;;4987683;28;20123;-62
2022/11/12 16:18:49;;;;;;;12.90;3.70;;;;;;;;;;4984966;28;20056;-62
2022/11/12 16:21:33;;;;;;;12.25;4.25;;;;;;;;;;4985973;28;20094;-62
2022/11/12 16:24:18;;;;;;;25.98;11.05;;;;;;;;;;4982157;28;20058;-61
2022/11/12 16:27:06;;;;;;;37.20;14.63;;;;;;;;;;4985777;28;20403;-62
2022/11/12 16:29:50;;;;;;;29.25;14.00;;;;;;;;;;4976359;28;20038;-62
2022/11/12 16:32:35;;;;;;;27.38;12.45;;;;;;;;;;4983056;28;20119;-62
2022/11/12 16:35:20;;;;;;;23.13;10.13;;;;;;;;;;4988854;28;20531;-61
2022/11/12 16:38:11;;;;;;;20.85;7.90;;;;;;;;;;4989456;28;20413;-61
2022/11/12 16:40:56;;;;;;;34.17;14.73;;;;;;;;;;4985461;28;20527;-61
2022/11/12 16:43:41;;;;;;;33.22;12.68;;;;;;;;;;4981908;28;20087;-61
2022/11/12 16:46:28;;;;;;;34.33;18.55;;;;;;;;;;4979634;28;20465;-61
2022/11/12 16:49:16;;;;;;;39.03;13.60;;;;;;;;;;4982705;28;20113;-61